Time;durP1;ratioP1;P1;durP2;ratioP2;P2;SDS_P1;SDS_P2;PMS_P1;PMS_P2;Temp;Humidity;BMP_temperature;BMP_pressure;BME280_temperature;BME280_humidity;BME280_pressure;Samples;Min_cycle;Max_cycle;Signal;HPM_P1;HPM_P2
2023/07/26 00:10:08;;;;;;;;;;;;;;;14.72;85.58;101008.25;21101513;27;19924;-63
2023/07/26 00:20:29;;;;;;;;;;;;;;;14.59;86.87;101013.16;21098125;28;19928;-63
2023/07/26 00:30:51;;;;;;;;;;;;;;;14.48;86.55;101024.94;21093771;28;20391;-63
2023/07/26 00:41:12;;;;;;;;;;;;;;;14.38;87.27;101034.88;21083800;28;19932;-62
2023/07/26 00:51:35;;;;;;;;;;;;;;;14.44;85.94;101024.22;21121535;27;19934;-63
2023/07/26 01:01:57;;;;;;;;;;;;;;;14.44;85.39;101024.22;21103907;27;19977;-61
2023/07/26 01:12:21;;;;;;;;;;;;;;;14.30;86.63;101029.16;21105498;27;20647;-62
2023/07/26 01:22:43;;;;;;;;;;;;;;;14.25;85.31;101023.25;21102279;27;19927;-62
2023/07/26 01:33:05;;;;;;;;;;;;;;;14.24;85.44;101021.56;21097166;27;19930;-62
2023/07/26 01:43:27;;;;;;;;;;;;;;;14.18;86.73;101021.81;21104687;27;19927;-61
2023/07/26 01:53:48;;;;;;;;;;;;;;;14.22;87.24;101032.94;21103497;27;19932;-62
2023/07/26 02:04:10;;;;;;;;;;;;;;;14.16;86.13;101028.84;21102894;27;19928;-62
2023/07/26 02:14:31;;;;;;;;;;;;;;;14.21;86.09;101024.28;21093628;27;19924;-62
2023/07/26 02:24:53;;;;;;;;;;;;;;;14.18;86.29;101026.19;21105655;27;19928;-62
2023/07/26 02:35:14;;;;;;;;;;;;;;;14.19;86.22;101018.31;21102439;27;20206;-62
2023/07/26 02:45:36;;;;;;;;;;;;;;;14.12;85.67;101016.88;21092016;27;19923;-62
2023/07/26 02:55:57;;;;;;;;;;;;;;;14.07;86.27;101022.28;21104434;27;19928;-62
2023/07/26 03:06:19;;;;;;;;;;;;;;;14.12;86.43;101028.13;21090810;27;20271;-62
2023/07/26 03:16:40;;;;;;;;;;;;;;;14.01;88.30;101029.47;21082830;27;20559;-61
2023/07/26 03:27:06;;;;;;;;;;;;;;;14.04;86.93;101035.41;21103311;27;20019;-62
2023/07/26 03:37:28;;;;;;;;;;;;;;;14.12;87.07;101041.13;21095701;27;19980;-62
2023/07/26 03:47:50;;;;;;;;;;;;;;;14.13;86.52;101047.19;21106277;27;19924;-61
2023/07/26 03:58:11;;;;;;;;;;;;;;;14.11;86.73;101046.41;21072502;27;20340;-61
2023/07/26 04:08:32;;;;;;;;;;;;;;;14.13;87.54;101049.81;21101027;27;19931;-62
2023/07/26 04:18:54;;;;;;;;;;;;;;;14.13;87.48;101065.41;21101647;28;20306;-61
2023/07/26 04:29:15;;;;;;;;;;;;;;;14.12;88.98;101072.38;21101089;27;19928;-62
2023/07/26 04:39:37;;;;;;;;;;;;;;;14.12;88.35;101084.53;21111651;27;19924;-62
2023/07/26 04:49:58;;;;;;;;;;;;;;;14.10;88.67;101088.94;21087604;27;19924;-62
2023/07/26 05:00:20;;;;;;;;;;;;;;;14.07;89.28;101107.28;21093042;27;19924;-61
2023/07/26 05:10:41;;;;;;;;;;;;;;;14.18;88.46;101105.13;21110904;27;19932;-62
2023/07/26 05:21:03;;;;;;;;;;;;;;;14.30;88.61;101107.28;21097879;27;20019;-62
2023/07/26 05:31:24;;;;;;;;;;;;;;;14.38;88.23;101113.00;21109241;27;19938;-62
2023/07/26 05:41:46;;;;;;;;;;;;;;;14.54;87.88;101111.44;21108913;27;19931;-62
2023/07/26 05:52:07;;;;;;;;;;;;;;;14.64;89.45;101120.59;21095772;27;19934;-62
2023/07/26 06:02:29;;;;;;;;;;;;;;;14.66;86.81;101123.13;21093221;27;19924;-62
2023/07/26 06:12:50;;;;;;;;;;;;;;;14.77;88.59;101132.19;21099192;27;20010;-63
2023/07/26 06:23:12;;;;;;;;;;;;;;;15.04;85.11;101136.19;21089234;27;19924;-63
2023/07/26 06:33:33;;;;;;;;;;;;;;;15.17;85.61;101130.44;21091470;27;20395;-63
2023/07/26 06:43:55;;;;;;;;;;;;;;;15.30;85.90;101132.44;21095589;27;19932;-62
2023/07/26 06:54:16;;;;;;;;;;;;;;;15.47;83.36;101139.56;21095048;27;19943;-63
2023/07/26 07:04:38;;;;;;;;;;;;;;;15.81;84.42;101137.09;21099183;27;20291;-63
2023/07/26 07:14:59;;;;;;;;;;;;;;;16.15;81.06;101113.69;21118856;27;19924;-63
2023/07/26 07:25:21;;;;;;;;;;;;;;;16.36;78.24;101106.56;21097574;27;20790;-63
2023/07/26 07:35:42;;;;;;;;;;;;;;;16.59;77.45;101122.00;21099222;27;19924;-63
2023/07/26 07:46:04;;;;;;;;;;;;;;;16.76;75.41;101128.06;21097057;27;19928;-63
2023/07/26 07:56:25;;;;;;;;;;;;;;;17.09;76.04;101126.31;21098357;27;19927;-63
2023/07/26 08:06:47;;;;;;;;;;;;;;;17.24;75.13;101134.28;21092045;27;20534;-63
2023/07/26 08:17:08;;;;;;;;;;;;;;;17.34;73.83;101136.34;21072215;28;20379;-63
2023/07/26 08:27:30;;;;;;;;;;;;;;;16.90;78.96;101149.09;21088544;28;19934;-63
2023/07/26 08:37:52;;;;;;;;;;;;;;;16.51;82.45;101152.88;21088451;28;19924;-64
2023/07/26 08:48:13;;;;;;;;;;;;;;;16.69;81.69;101163.25;21096819;28;19927;-63
2023/07/26 08:58:35;;;;;;;;;;;;;;;16.69;80.30;101165.03;21074029;28;20372;-63
2023/07/26 09:08:56;;;;;;;;;;;;;;;16.94;78.01;101155.03;21092138;27;19928;-63
2023/07/26 09:19:18;;;;;;;;;;;;;;;17.33;74.56;101145.13;21100171;27;20446;-63
2023/07/26 09:29:40;;;;;;;;;;;;;;;17.52;71.77;101135.41;21104247;27;19954;-63
2023/07/26 09:40:02;;;;;;;;;;;;;;;17.74;71.81;101129.84;21101856;27;20014;-63
2023/07/26 09:50:25;;;;;;;;;;;;;;;17.70;71.79;101130.94;21105081;27;20303;-63
2023/07/26 10:01:00;;;;;;;;;;;;;;;17.93;71.86;101120.88;21093934;27;19978;-63
2023/07/26 10:11:22;;;;;;;;;;;;;;;18.36;70.23;101114.06;21110869;27;19928;-63
2023/07/26 10:21:46;;;;;;;;;;;;;;;18.38;67.74;101119.22;21092386;27;20398;-64
2023/07/26 10:32:08;;;;;;;;;;;;;;;18.40;69.46;101125.22;21108336;27;19930;-63
2023/07/26 10:42:30;;;;;;;;;;;;;;;18.45;69.29;101121.44;21093417;27;19972;-63
2023/07/26 10:52:53;;;;;;;;;;;;;;;18.76;64.68;101113.47;21092256;27;21315;-63
2023/07/26 11:03:24;;;;;;;;;;;;;;;19.09;65.25;101100.09;21096137;27;19967;-63
2023/07/26 11:13:46;;;;;;;;;;;;;;;19.54;62.72;101085.97;21089200;27;20002;-63
2023/07/26 11:24:07;;;;;;;;;;;;;;;19.40;64.05;101093.84;21100326;27;19977;-64
2023/07/26 11:34:29;;;;;;;;;;;;;;;19.72;64.56;101090.06;21086445;27;19931;-63
2023/07/26 11:44:50;;;;;;;;;;;;;;;19.96;66.41;101072.72;21092171;27;19927;-63
2023/07/26 11:55:12;;;;;;;;;;;;;;;20.19;62.45;101084.38;21095027;27;19932;-63
2023/07/26 12:05:33;;;;;;;;;;;;;;;20.15;64.28;101083.69;21089160;27;20021;-64
2023/07/26 12:15:59;;;;;;;;;;;;;;;19.74;64.00;101104.75;21089135;28;20003;-63
2023/07/26 12:26:20;;;;;;;;;;;;;;;19.88;64.79;101098.63;21088705;28;19981;-63
2023/07/26 12:36:45;;;;;;;;;;;;;;;19.87;66.03;101094.31;21088764;28;20010;-63
2023/07/26 12:47:06;;;;;;;;;;;;;;;19.44;64.60;101132.94;21106270;27;19924;-63
2023/07/26 12:57:31;;;;;;;;;;;;;;;17.55;80.83;101165.78;21123035;27;19928;-63
2023/07/26 13:07:52;;;;;;;;;;;;;;;16.96;86.25;101171.47;21105641;27;20614;-64
2023/07/26 13:18:14;;;;;;;;;;;;;;;17.19;83.83;101172.94;21103967;27;19927;-63
2023/07/26 13:28:36;;;;;;;;;;;;;;;17.25;84.30;101165.59;21102759;27;19932;-64
2023/07/26 13:38:57;;;;;;;;;;;;;;;17.10;81.10;101201.22;21106941;27;19935;-63
2023/07/26 13:49:19;;;;;;;;;;;;;;;16.37;83.68;101194.47;21078750;27;19938;-63
2023/07/26 13:59:41;;;;;;;;;;;;;;;16.16;88.23;101198.09;21096184;27;20405;-64
2023/07/26 14:10:02;;;;;;;;;;;;;;;16.31;84.38;101200.84;21079547;27;19931;-64
2023/07/26 14:20:24;;;;;;;;;;;;;;;16.30;84.64;101201.75;21108043;27;20372;-63
2023/07/26 14:30:46;;;;;;;;;;;;;;;16.54;84.47;101204.97;21098055;27;19928;-64
2023/07/26 14:41:11;;;;;;;;;;;;;;;16.74;82.17;101203.09;21099932;27;20384;-63
2023/07/26 14:51:33;;;;;;;;;;;;;;;17.16;79.21;101183.56;21101610;27;19939;-63
2023/07/26 15:01:54;;;;;;;;;;;;;;;17.53;78.68;101185.97;21097272;27;19970;-63
2023/07/26 15:12:16;;;;;;;;;;;;;;;18.02;77.25;101192.84;21104480;27;19928;-63
2023/07/26 15:22:37;;;;;;;;;;;;;;;18.23;77.19;101185.59;21091143;27;20015;-63
2023/07/26 15:32:59;;;;;;;;;;;;;;;18.46;75.82;101177.34;21096454;27;19935;-63
2023/07/26 15:43:20;;;;;;;;;;;;;;;18.54;75.44;101170.72;21087437;27;20011;-63
2023/07/26 15:53:45;;;;;;;;;;;;;;;18.51;76.03;101181.38;21091496;27;19927;-63
2023/07/26 16:04:06;;;;;;;;;;;;;;;18.47;75.40;101172.00;21089854;27;19928;-63
2023/07/26 16:14:47;;;;;;;;;;;;;;;18.61;74.78;101168.56;21085722;27;20560;-63
2023/07/26 16:25:09;;;;;;;;;;;;;;;19.31;73.57;101154.75;21089863;28;19934;-63
2023/07/26 16:35:31;;;;;;;;;;;;;;;19.32;70.30;101165.19;21081802;28;20032;-63
2023/07/26 16:45:53;;;;;;;;;;;;;;;19.55;70.04;101166.41;21081656;28;19928;-63
2023/07/26 16:56:14;;;;;;;;;;;;;;;19.88;71.50;101164.31;21076445;28;19931;-63
2023/07/26 17:06:36;;;;;;;;;;;;;;;19.90;71.84;101159.81;21086720;28;20261;-63
2023/07/26 17:16:57;;;;;;;;;;;;;;;19.52;73.79;101156.09;21084149;28;20447;-63
2023/07/26 17:27:18;;;;;;;;;;;;;;;19.12;73.75;101157.63;21097955;27;19938;-63
2023/07/26 17:37:40;;;;;;;;;;;;;;;19.20;73.12;101152.78;21102965;27;19923;-63
2023/07/26 17:48:03;;;;;;;;;;;;;;;19.04;74.13;101160.72;21111728;27;20368;-63
2023/07/26 17:58:26;;;;;;;;;;;;;;;18.88;73.03;101165.19;21101012;27;19924;-63
2023/07/26 18:08:48;;;;;;;;;;;;;;;18.77;74.94;101174.63;21086716;27;19927;-63
2023/07/26 18:19:09;;;;;;;;;;;;;;;18.69;76.50;101169.84;21103920;27;19932;-63
2023/07/26 18:29:30;;;;;;;;;;;;;;;18.66;75.69;101167.38;21078536;27;20003;-63
2023/07/26 18:39:52;;;;;;;;;;;;;;;18.51;76.00;101176.16;21099653;27;19923;-63
2023/07/26 18:50:14;;;;;;;;;;;;;;;18.41;77.05;101187.19;21099625;27;19930;-63
2023/07/26 19:00:35;;;;;;;;;;;;;;;18.33;77.59;101187.59;21088311;27;19939;-63
2023/07/26 19:10:57;;;;;;;;;;;;;;;18.27;77.29;101187.97;21098531;27;19931;-63
2023/07/26 19:21:19;;;;;;;;;;;;;;;18.20;77.53;101204.97;21095470;27;19932;-63
2023/07/26 19:31:40;;;;;;;;;;;;;;;18.16;78.68;101207.84;21083379;27;19924;-63
2023/07/26 19:42:02;;;;;;;;;;;;;;;18.07;78.96;101211.81;21094572;27;19924;-63
2023/07/26 19:52:23;;;;;;;;;;;;;;;17.91;79.27;101226.63;21093553;27;19924;-63
2023/07/26 20:02:45;;;;;;;;;;;;;;;17.75;80.05;101221.41;21094443;27;20391;-63
2023/07/26 20:13:07;;;;;;;;;;;;;;;17.65;80.30;101214.13;21104918;27;19928;-63
2023/07/26 20:23:28;;;;;;;;;;;;;;;17.60;79.87;101209.13;21087121;27;19924;-63
2023/07/26 20:33:50;;;;;;;;;;;;;;;17.58;80.18;101205.72;21088606;28;19928;-63
2023/07/26 20:44:11;;;;;;;;;;;;;;;17.53;80.03;101206.91;21087826;28;19924;-63
2023/07/26 20:54:33;;;;;;;;;;;;;;;17.44;80.35;101204.72;21087023;28;20286;-62
2023/07/26 21:04:54;;;;;;;;;;;;;;;17.37;81.81;101200.75;21079211;27;19923;-63
2023/07/26 21:15:18;;;;;;;;;;;;;;;17.25;82.52;101193.53;21106333;27;19935;-63
2023/07/26 21:25:46;;;;;;;;;;;;;;;17.18;82.10;101184.31;21108208;27;19935;-63
2023/07/26 21:36:08;;;;;;;;;;;;;;;17.06;82.28;101178.81;21107977;27;19931;-63
2023/07/26 21:46:29;;;;;;;;;;;;;;;17.00;82.72;101168.66;21104900;27;20301;-63
2023/07/26 21:56:51;;;;;;;;;;;;;;;16.86;83.10;101165.91;21100108;27;20342;-62
2023/07/26 22:07:12;;;;;;;;;;;;;;;16.76;83.19;101167.25;21100423;27;19931;-62
2023/07/26 22:17:34;;;;;;;;;;;;;;;16.63;83.34;101168.78;21105378;27;19939;-63
2023/07/26 22:27:55;;;;;;;;;;;;;;;16.49;84.55;101167.78;21097300;27;19927;-63
2023/07/26 22:38:17;;;;;;;;;;;;;;;16.38;84.77;101157.81;21094849;27;19953;-63
2023/07/26 22:48:39;;;;;;;;;;;;;;;16.27;84.49;101152.28;21085995;27;19923;-63
2023/07/26 22:59:01;;;;;;;;;;;;;;;16.12;85.06;101145.16;21093974;27;20271;-63
2023/07/26 23:09:22;;;;;;;;;;;;;;;16.06;85.39;101145.44;21095557;27;20280;-63
2023/07/26 23:19:44;;;;;;;;;;;;;;;15.95;86.06;101126.88;21094468;27;19937;-63
2023/07/26 23:30:06;;;;;;;;;;;;;;;15.81;87.20;101109.22;21088528;27;19924;-63
2023/07/26 23:40:27;;;;;;;;;;;;;;;15.73;86.81;101115.75;21086815;27;20391;-63
2023/07/26 23:50:49;;;;;;;;;;;;;;;15.58;87.80;101108.59;21107302;27;20602;-63
